createdAt,value
2022-11-10T00:01:09.062Z,100.00
2022-11-10T00:03:37.832Z,100.00
2022-11-10T00:06:08.621Z,100.00
2022-11-10T00:08:36.273Z,100.00
2022-11-10T00:11:09.589Z,100.00
2022-11-10T00:13:56.618Z,100.00
2022-11-10T00:16:42.347Z,100.00
2022-11-10T00:19:09.038Z,100.00
2022-11-10T00:21:37.192Z,100.00
2022-11-10T00:24:04.004Z,100.00
2022-11-10T00:26:30.888Z,100.00
2022-11-10T00:28:57.491Z,100.00
2022-11-10T00:31:24.984Z,100.00
2022-11-10T00:33:52.617Z,100.00
2022-11-10T00:36:19.142Z,100.00
2022-11-10T00:38:46.369Z,100.00
2022-11-10T00:41:13.109Z,100.00
2022-11-10T00:43:41.118Z,100.00
2022-11-10T00:46:07.708Z,100.00
2022-11-10T00:48:37.531Z,100.00
2022-11-10T00:51:04.262Z,100.00
2022-11-10T00:53:31.156Z,100.00
2022-11-10T00:55:57.774Z,100.00
2022-11-10T00:58:24.677Z,100.00
2022-11-10T01:00:51.684Z,100.00
2022-11-10T01:03:18.900Z,100.00
2022-11-10T01:05:46.061Z,100.00
2022-11-10T01:08:15.084Z,100.00
2022-11-10T01:10:41.609Z,100.00
2022-11-10T01:13:08.785Z,100.00
2022-11-10T01:15:39.117Z,100.00
2022-11-10T01:18:06.172Z,100.00
2022-11-10T01:20:36.149Z,100.00
2022-11-10T01:23:02.797Z,100.00
2022-11-10T01:25:29.375Z,100.00
2022-11-10T01:27:56.605Z,100.00
2022-11-10T01:30:24.261Z,100.00
2022-11-10T01:32:51.049Z,100.00
2022-11-10T01:35:18.114Z,100.00
2022-11-10T01:37:45.501Z,100.00
2022-11-10T01:40:14.955Z,100.00
2022-11-10T01:42:49.591Z,100.00
2022-11-10T01:45:25.579Z,100.00
2022-11-10T01:47:56.495Z,100.00
2022-11-10T01:50:26.160Z,100.00
2022-11-10T01:52:57.109Z,100.00
2022-11-10T01:55:25.035Z,100.00
2022-11-10T01:57:52.327Z,100.00
2022-11-10T02:00:19.784Z,100.00
2022-11-10T02:02:52.812Z,100.00
2022-11-10T02:05:21.862Z,100.00
2022-11-10T02:07:51.063Z,100.00
2022-11-10T02:10:20.005Z,100.00
2022-11-10T02:12:48.635Z,100.00
2022-11-10T02:15:18.285Z,100.00
2022-11-10T02:17:48.053Z,100.00
2022-11-10T02:20:19.655Z,100.00
2022-11-10T02:22:49.336Z,100.00
2022-11-10T02:25:21.601Z,100.00
2022-11-10T02:27:49.615Z,100.00
2022-11-10T02:30:16.730Z,100.00
2022-11-10T02:32:43.719Z,100.00
2022-11-10T02:35:10.608Z,100.00
2022-11-10T02:37:39.965Z,100.00
2022-11-10T02:40:07.591Z,100.00
2022-11-10T02:42:34.411Z,100.00
2022-11-10T02:45:01.277Z,100.00
2022-11-10T02:47:28.063Z,100.00
2022-11-10T02:49:55.309Z,100.00
2022-11-10T02:52:21.940Z,100.00
2022-11-10T02:54:48.754Z,100.00
2022-11-10T02:57:15.970Z,100.00
2022-11-10T02:59:42.610Z,100.00
2022-11-10T03:02:09.179Z,100.00
2022-11-10T03:04:35.962Z,100.00
2022-11-10T03:07:02.649Z,100.00
2022-11-10T03:09:29.263Z,100.00
2022-11-10T03:11:56.097Z,100.00
2022-11-10T03:14:22.735Z,100.00
2022-11-10T03:16:49.790Z,100.00
2022-11-10T03:19:17.035Z,100.00
2022-11-10T03:21:43.628Z,100.00
2022-11-10T03:24:10.477Z,100.00
2022-11-10T03:26:37.074Z,100.00
2022-11-10T03:29:04.244Z,100.00
2022-11-10T03:31:31.448Z,100.00
2022-11-10T03:34:00.177Z,100.00
2022-11-10T03:36:27.036Z,100.00
2022-11-10T03:38:53.895Z,100.00
2022-11-10T03:41:20.961Z,100.00
2022-11-10T03:43:48.777Z,100.00
2022-11-10T03:46:19.433Z,100.00
2022-11-10T03:48:53.436Z,100.00
2022-11-10T03:51:21.618Z,100.00
2022-11-10T03:53:48.128Z,100.00
2022-11-10T03:56:14.752Z,100.00
2022-11-10T03:58:41.693Z,100.00
2022-11-10T04:01:09.260Z,100.00
2022-11-10T04:03:35.875Z,100.00
2022-11-10T04:06:23.710Z,100.00
2022-11-10T04:09:04.344Z,100.00
2022-11-10T04:11:50.512Z,100.00
2022-11-10T04:14:36.279Z,100.00
2022-11-10T04:17:03.889Z,100.00
2022-11-10T04:19:30.781Z,100.00
2022-11-10T04:21:57.486Z,100.00
2022-11-10T04:24:24.871Z,100.00
2022-11-10T04:26:52.042Z,100.00
2022-11-10T04:29:20.258Z,100.00
2022-11-10T04:31:47.479Z,100.00
2022-11-10T04:34:20.189Z,100.00
2022-11-10T04:36:47.345Z,100.00
2022-11-10T04:39:14.227Z,100.00
2022-11-10T04:41:40.904Z,100.00
2022-11-10T04:44:07.979Z,100.00
2022-11-10T04:46:39.829Z,100.00
2022-11-10T04:49:08.310Z,100.00
2022-11-10T04:51:37.420Z,100.00
2022-11-10T04:54:06.597Z,100.00
2022-11-10T04:56:34.759Z,100.00
2022-11-10T04:59:01.825Z,100.00
2022-11-10T05:01:29.291Z,100.00
2022-11-10T05:03:56.276Z,100.00
2022-11-10T05:06:24.193Z,100.00
2022-11-10T05:08:51.451Z,100.00
2022-11-10T05:11:18.656Z,100.00
2022-11-10T05:13:45.836Z,100.00
2022-11-10T05:16:14.331Z,100.00
2022-11-10T05:18:42.044Z,100.00
2022-11-10T05:21:09.289Z,100.00
2022-11-10T05:23:40.429Z,100.00
2022-11-10T05:26:15.302Z,100.00
2022-11-10T05:28:44.595Z,100.00
2022-11-10T05:31:12.932Z,100.00
2022-11-10T05:33:39.658Z,100.00
2022-11-10T05:36:07.541Z,100.00
2022-11-10T05:38:42.998Z,100.00
2022-11-10T05:41:10.310Z,100.00
2022-11-10T05:43:37.348Z,100.00
2022-11-10T05:46:04.486Z,100.00
2022-11-10T05:48:37.102Z,100.00
2022-11-10T05:51:03.904Z,100.00
2022-11-10T05:53:33.284Z,100.00
2022-11-10T05:55:59.992Z,100.00
2022-11-10T05:58:29.030Z,100.00
2022-11-10T06:01:00.863Z,100.00
2022-11-10T06:03:28.693Z,100.00
2022-11-10T06:05:58.005Z,100.00
2022-11-10T06:08:24.797Z,100.00
2022-11-10T06:10:52.085Z,100.00
2022-11-10T06:13:19.579Z,100.00
2022-11-10T06:15:50.406Z,100.00
2022-11-10T06:18:18.157Z,100.00
2022-11-10T06:20:46.903Z,100.00
2022-11-10T06:23:14.252Z,100.00
2022-11-10T06:25:42.179Z,100.00
2022-11-10T06:28:09.483Z,100.00
2022-11-10T06:30:37.799Z,100.00
2022-11-10T06:33:05.070Z,100.00
2022-11-10T06:35:31.705Z,100.00
2022-11-10T06:38:03.025Z,100.00
2022-11-10T06:40:30.833Z,100.00
2022-11-10T06:42:58.005Z,100.00
2022-11-10T06:45:25.751Z,100.00
2022-11-10T06:48:13.871Z,100.00
2022-11-10T06:50:40.456Z,100.00
2022-11-10T06:53:07.542Z,100.00
2022-11-10T06:55:34.492Z,100.00
2022-11-10T06:58:01.562Z,100.00
2022-11-10T07:00:29.448Z,100.00
2022-11-10T07:03:04.509Z,100.00
2022-11-10T07:05:35.535Z,100.00
2022-11-10T07:08:07.766Z,100.00
2022-11-10T07:10:35.275Z,100.00
2022-11-10T07:13:03.640Z,100.00
2022-11-10T07:15:30.856Z,100.00
2022-11-10T07:17:58.310Z,100.00
2022-11-10T07:20:26.139Z,100.00
2022-11-10T07:22:58.717Z,100.00
2022-11-10T07:25:26.084Z,100.00
2022-11-10T07:27:57.788Z,100.00
2022-11-10T07:30:24.921Z,100.00
2022-11-10T07:33:18.639Z,100.00
2022-11-10T07:35:55.672Z,100.00
2022-11-10T07:38:22.578Z,100.00
2022-11-10T07:40:54.022Z,100.00
2022-11-10T07:43:22.333Z,100.00
2022-11-10T07:45:53.306Z,100.00
2022-11-10T07:48:20.529Z,100.00
2022-11-10T07:50:47.387Z,100.00
2022-11-10T07:53:16.655Z,100.00
2022-11-10T07:55:44.840Z,100.00
2022-11-10T07:58:12.451Z,100.00
2022-11-10T08:00:40.367Z,100.00
2022-11-10T08:03:12.081Z,100.00
2022-11-10T08:05:39.866Z,100.00
2022-11-10T08:08:07.704Z,100.00
2022-11-10T08:10:36.061Z,100.00
2022-11-10T08:13:05.966Z,100.00
2022-11-10T08:15:34.352Z,100.00
2022-11-10T08:18:03.877Z,100.00
2022-11-10T08:20:31.576Z,100.00
2022-11-10T08:23:06.295Z,100.00
2022-11-10T08:25:37.436Z,100.00
2022-11-10T08:28:08.647Z,98.94
2022-11-10T08:30:37.131Z,98.52
2022-11-10T08:33:05.768Z,97.11
2022-11-10T08:35:36.648Z,94.76
2022-11-10T08:38:24.323Z,94.36
2022-11-10T08:40:50.815Z,95.67
2022-11-10T08:43:18.600Z,95.18
2022-11-10T08:45:45.840Z,95.56
2022-11-10T08:48:13.951Z,95.58
2022-11-10T08:50:41.397Z,94.92
2022-11-10T08:53:12.233Z,94.79
2022-11-10T08:55:39.749Z,94.76
2022-11-10T08:58:08.591Z,95.11
2022-11-10T09:00:35.299Z,95.35
2022-11-10T09:03:31.726Z,94.78
2022-11-10T09:05:59.057Z,94.66
2022-11-10T09:08:26.690Z,94.26
2022-11-10T09:10:53.329Z,92.91
2022-11-10T09:13:29.492Z,91.11
2022-11-10T09:16:00.853Z,88.83
2022-11-10T09:18:27.778Z,85.80
2022-11-10T09:20:54.527Z,83.96
2022-11-10T09:23:25.064Z,81.04
2022-11-10T09:25:55.793Z,80.16
2022-11-10T09:28:23.798Z,78.63
2022-11-10T09:30:51.946Z,77.80
2022-11-10T09:33:19.195Z,77.37
2022-11-10T09:35:46.116Z,77.71
2022-11-10T09:38:13.168Z,76.38
2022-11-10T09:40:58.026Z,75.12
2022-11-10T09:43:38.141Z,74.17
2022-11-10T09:46:16.248Z,75.42
2022-11-10T09:49:01.624Z,74.97
2022-11-10T09:51:34.368Z,75.35
2022-11-10T09:54:06.145Z,74.88
2022-11-10T09:56:35.601Z,74.02
2022-11-10T09:59:16.045Z,73.97
2022-11-10T10:01:49.642Z,75.18
2022-11-10T10:04:53.711Z,76.97
2022-11-10T10:07:35.914Z,77.42
2022-11-10T10:10:21.041Z,78.64
2022-11-10T10:13:23.242Z,79.45
2022-11-10T10:16:16.431Z,80.32
2022-11-10T10:18:58.707Z,81.33
2022-11-10T10:22:01.989Z,82.54
2022-11-10T10:24:30.293Z,82.76
2022-11-10T10:27:03.944Z,82.21
2022-11-10T10:29:40.664Z,82.05
2022-11-10T10:32:13.740Z,82.96
2022-11-10T10:34:42.965Z,81.43
2022-11-10T10:37:23.001Z,81.36
2022-11-10T10:39:55.277Z,81.57
2022-11-10T10:42:33.582Z,81.35
2022-11-10T10:45:42.605Z,79.21
2022-11-10T10:48:26.227Z,79.70
2022-11-10T10:50:53.083Z,79.30
2022-11-10T10:53:25.203Z,80.16
2022-11-10T10:56:29.240Z,80.59
2022-11-10T10:58:58.377Z,79.25
2022-11-10T11:01:33.527Z,79.02
2022-11-10T11:04:05.188Z,79.55
2022-11-10T11:06:34.686Z,79.50
2022-11-10T11:09:09.297Z,79.48
2022-11-10T11:11:39.523Z,78.57
2022-11-10T11:14:18.770Z,78.39
2022-11-10T11:17:00.685Z,78.50
2022-11-10T11:19:35.956Z,78.19
2022-11-10T11:22:41.142Z,78.54
2022-11-10T11:25:32.320Z,78.53
2022-11-10T11:28:18.878Z,79.17
2022-11-10T11:31:15.745Z,78.23
2022-11-10T11:34:13.009Z,78.28
2022-11-10T11:36:39.378Z,79.39
2022-11-10T11:39:43.870Z,79.22
2022-11-10T11:42:34.318Z,78.86
2022-11-10T11:45:33.093Z,78.94
2022-11-10T11:48:23.601Z,79.21
2022-11-10T11:51:05.396Z,80.21
2022-11-10T11:53:39.611Z,81.05
2022-11-10T11:56:11.403Z,81.05
2022-11-10T11:58:59.147Z,81.01
2022-11-10T12:01:34.706Z,81.26
2022-11-10T12:04:34.941Z,82.41
2022-11-10T12:07:36.109Z,82.66
2022-11-10T12:10:02.619Z,83.15
2022-11-10T12:12:49.594Z,83.69
2022-11-10T12:15:40.997Z,83.41
2022-11-10T12:18:10.897Z,83.60
2022-11-10T12:20:48.582Z,83.45
2022-11-10T12:23:18.428Z,84.03
2022-11-10T12:26:01.459Z,84.12
2022-11-10T12:29:06.522Z,84.80
2022-11-10T12:31:36.609Z,85.23
2022-11-10T12:34:20.158Z,85.38
2022-11-10T12:36:47.639Z,85.88
2022-11-10T12:39:23.823Z,85.83
2022-11-10T12:41:56.482Z,86.00
2022-11-10T12:44:31.587Z,86.09
2022-11-10T12:47:02.897Z,85.89
2022-11-10T12:49:35.840Z,86.19
2022-11-10T12:52:23.940Z,86.13
2022-11-10T12:54:50.645Z,86.58
2022-11-10T12:57:25.506Z,86.23
2022-11-10T13:00:00.487Z,86.13
2022-11-10T13:02:40.782Z,86.12
2022-11-10T13:05:23.689Z,86.11
2022-11-10T13:07:51.772Z,86.37
2022-11-10T13:10:19.192Z,86.70
2022-11-10T13:13:05.118Z,86.91
2022-11-10T13:15:46.251Z,87.28
2022-11-10T13:18:24.880Z,87.17
2022-11-10T13:20:54.940Z,86.90
2022-11-10T13:23:23.028Z,87.21
2022-11-10T13:26:35.332Z,87.51
2022-11-10T13:29:32.262Z,87.29
2022-11-10T13:32:08.018Z,87.25
2022-11-10T13:34:36.742Z,86.88
2022-11-10T13:37:24.476Z,87.10
2022-11-10T13:39:51.977Z,86.78
2022-11-10T13:42:23.975Z,86.52
2022-11-10T13:44:52.614Z,86.67
2022-11-10T13:47:55.041Z,87.45
2022-11-10T13:50:34.239Z,87.45
2022-11-10T13:53:14.495Z,87.11
2022-11-10T13:56:24.947Z,87.18
2022-11-10T13:58:51.580Z,87.25
2022-11-10T14:01:18.486Z,86.97
2022-11-10T14:03:45.465Z,86.84
2022-11-10T14:06:22.595Z,86.75
2022-11-10T14:09:03.468Z,86.92
2022-11-10T14:11:43.683Z,86.98
2022-11-10T14:14:23.196Z,87.06
2022-11-10T14:16:50.739Z,86.80
2022-11-10T14:19:38.333Z,86.79
2022-11-10T14:22:14.875Z,87.10
2022-11-10T14:24:59.886Z,86.87
2022-11-10T14:27:31.178Z,86.55
2022-11-10T14:30:21.830Z,86.43
2022-11-10T14:33:02.425Z,86.36
2022-11-10T14:35:31.853Z,86.37
2022-11-10T14:38:02.500Z,86.44
2022-11-10T14:40:30.481Z,86.62
2022-11-10T14:42:57.982Z,86.78
2022-11-10T14:45:29.046Z,86.65
2022-11-10T14:48:00.114Z,86.74
2022-11-10T14:50:31.914Z,87.06
2022-11-10T14:53:03.692Z,87.07
2022-11-10T14:55:34.087Z,86.87
2022-11-10T14:58:05.675Z,86.88
2022-11-10T15:00:36.615Z,86.80
2022-11-10T15:03:05.941Z,87.04
2022-11-10T15:05:34.098Z,86.99
2022-11-10T15:08:03.152Z,87.00
2022-11-10T15:10:39.511Z,87.12
2022-11-10T15:13:19.674Z,87.30
2022-11-10T15:15:46.861Z,87.11
2022-11-10T15:18:28.652Z,87.30
2022-11-10T15:21:13.008Z,87.33
2022-11-10T15:23:41.591Z,87.30
2022-11-10T15:26:20.876Z,87.50
2022-11-10T15:28:47.687Z,87.58
2022-11-10T15:31:24.151Z,87.45
2022-11-10T15:33:55.135Z,87.74
2022-11-10T15:36:32.282Z,87.73
2022-11-10T15:39:15.684Z,87.84
2022-11-10T15:42:04.730Z,88.12
2022-11-10T15:44:31.260Z,88.09
2022-11-10T15:46:59.030Z,88.04
2022-11-10T15:49:25.493Z,88.38
2022-11-10T15:51:56.530Z,88.60
2022-11-10T15:54:26.607Z,88.69
2022-11-10T15:56:53.190Z,88.90
2022-11-10T15:59:19.843Z,88.85
2022-11-10T16:01:49.468Z,89.12
2022-11-10T16:04:16.853Z,88.98
2022-11-10T16:06:43.495Z,89.28
2022-11-10T16:09:12.182Z,89.13
2022-11-10T16:11:41.298Z,89.18
2022-11-10T16:14:15.339Z,89.48
2022-11-10T16:16:42.801Z,89.51
2022-11-10T16:19:11.144Z,89.72
2022-11-10T16:21:37.877Z,89.95
2022-11-10T16:24:05.145Z,89.65
2022-11-10T16:26:35.175Z,89.70
2022-11-10T16:29:02.235Z,89.98
2022-11-10T16:31:30.317Z,90.12
2022-11-10T16:33:57.331Z,90.08
2022-11-10T16:36:34.215Z,90.18
2022-11-10T16:39:12.101Z,90.57
2022-11-10T16:41:38.604Z,90.18
2022-11-10T16:44:13.783Z,90.31
2022-11-10T16:46:42.530Z,90.32
2022-11-10T16:49:28.287Z,90.07
2022-11-10T16:51:55.414Z,90.40
2022-11-10T16:54:22.429Z,89.96
2022-11-10T16:56:49.169Z,90.28
2022-11-10T16:59:16.309Z,90.20
2022-11-10T17:01:46.386Z,90.16
2022-11-10T17:04:14.147Z,90.43
2022-11-10T17:06:41.540Z,90.33
2022-11-10T17:09:16.089Z,90.75
2022-11-10T17:11:45.014Z,90.83
2022-11-10T17:14:13.555Z,90.87
2022-11-10T17:16:43.490Z,90.96
2022-11-10T17:19:27.473Z,91.12
2022-11-10T17:21:54.462Z,91.33
2022-11-10T17:24:21.681Z,91.11
2022-11-10T17:26:48.684Z,91.23
2022-11-10T17:29:21.011Z,91.49
2022-11-10T17:31:50.544Z,91.07
2022-11-10T17:34:17.681Z,91.50
2022-11-10T17:36:46.435Z,91.50
2022-11-10T17:39:15.146Z,91.60
2022-11-10T17:41:41.771Z,91.44
2022-11-10T17:44:17.856Z,91.71
2022-11-10T17:46:45.269Z,91.70
2022-11-10T17:49:11.987Z,91.74
2022-11-10T17:51:40.576Z,91.89
2022-11-10T17:54:16.140Z,91.61
2022-11-10T17:56:43.112Z,92.03
2022-11-10T17:59:09.651Z,91.63
2022-11-10T18:01:37.055Z,91.64
2022-11-10T18:04:03.710Z,91.92
2022-11-10T18:06:31.877Z,91.91
2022-11-10T18:08:58.424Z,92.25
2022-11-10T18:11:25.241Z,92.00
2022-11-10T18:13:52.777Z,92.27
2022-11-10T18:16:19.615Z,92.57
2022-11-10T18:18:46.451Z,92.62
2022-11-10T18:21:13.836Z,92.61
2022-11-10T18:23:45.608Z,92.79
2022-11-10T18:26:14.649Z,93.01
2022-11-10T18:28:43.240Z,93.08
2022-11-10T18:31:13.223Z,93.29
2022-11-10T18:33:39.883Z,93.47
2022-11-10T18:36:06.941Z,93.69
2022-11-10T18:38:33.591Z,94.07
2022-11-10T18:41:25.337Z,94.21
2022-11-10T18:43:52.787Z,94.14
2022-11-10T18:46:19.429Z,94.06
2022-11-10T18:48:46.914Z,94.11
2022-11-10T18:51:14.775Z,94.67
2022-11-10T18:53:41.508Z,94.74
2022-11-10T18:56:08.695Z,94.42
2022-11-10T18:58:35.641Z,94.46
2022-11-10T19:01:07.036Z,94.54
2022-11-10T19:03:35.107Z,94.97
2022-11-10T19:06:05.370Z,94.81
2022-11-10T19:08:31.862Z,95.01
2022-11-10T19:11:00.863Z,94.74
2022-11-10T19:13:30.680Z,95.01
2022-11-10T19:16:00.556Z,94.83
2022-11-10T19:18:30.619Z,94.69
2022-11-10T19:20:57.310Z,94.95
2022-11-10T19:23:24.644Z,95.04
2022-11-10T19:26:02.369Z,95.17
2022-11-10T19:28:29.411Z,94.95
2022-11-10T19:31:23.187Z,95.02
2022-11-10T19:33:52.658Z,95.22
2022-11-10T19:36:22.238Z,95.03
2022-11-10T19:38:49.011Z,95.25
2022-11-10T19:41:19.845Z,95.25
2022-11-10T19:43:47.746Z,95.12
2022-11-10T19:46:16.109Z,95.33
2022-11-10T19:48:43.778Z,95.32
2022-11-10T19:51:14.396Z,95.31
2022-11-10T19:53:42.579Z,95.48
2022-11-10T19:56:26.262Z,95.54
2022-11-10T19:58:56.869Z,95.36
2022-11-10T20:01:23.878Z,95.33
2022-11-10T20:03:53.253Z,95.75
2022-11-10T20:06:22.597Z,95.86
2022-11-10T20:08:49.904Z,96.06
2022-11-10T20:11:23.785Z,95.99
2022-11-10T20:13:54.982Z,96.31
2022-11-10T20:16:24.442Z,96.63
2022-11-10T20:18:51.242Z,96.43
2022-11-10T20:21:22.491Z,96.62
2022-11-10T20:23:54.283Z,96.77
2022-11-10T20:26:25.601Z,97.25
2022-11-10T20:28:52.699Z,97.08
2022-11-10T20:31:23.754Z,97.44
2022-11-10T20:33:54.669Z,97.17
2022-11-10T20:36:32.288Z,97.31
2022-11-10T20:39:00.591Z,97.62
2022-11-10T20:41:29.485Z,97.48
2022-11-10T20:43:56.104Z,97.88
2022-11-10T20:46:53.624Z,97.88
2022-11-10T20:49:13.261Z,97.83
2022-11-10T20:51:40.728Z,98.27
2022-11-10T20:54:08.883Z,98.46
2022-11-10T20:56:35.284Z,98.03
2022-11-10T20:59:04.357Z,98.27
2022-11-10T21:01:30.914Z,98.38
2022-11-10T21:03:57.541Z,98.18
2022-11-10T21:06:24.115Z,98.41
2022-11-10T21:08:51.259Z,99.07
2022-11-10T21:11:43.731Z,98.99
2022-11-10T21:14:10.368Z,99.15
2022-11-10T21:16:37.348Z,99.29
2022-11-10T21:19:04.183Z,99.09
2022-11-10T21:21:37.150Z,99.35
2022-11-10T21:24:05.756Z,99.49
2022-11-10T21:26:34.288Z,99.33
2022-11-10T21:29:03.359Z,99.54
2022-11-10T21:31:32.612Z,99.56
2022-11-10T21:34:01.607Z,99.87
2022-11-10T21:36:29.887Z,100.00
2022-11-10T21:39:00.369Z,100.00
2022-11-10T21:41:27.559Z,99.93
2022-11-10T21:43:54.094Z,100.00
2022-11-10T21:46:21.115Z,100.00
2022-11-10T21:48:51.992Z,100.00
2022-11-10T21:51:19.887Z,100.00
2022-11-10T21:53:47.380Z,100.00
2022-11-10T21:56:14.029Z,100.00
2022-11-10T21:58:40.931Z,100.00
2022-11-10T22:01:11.299Z,100.00
2022-11-10T22:03:38.005Z,100.00
2022-11-10T22:06:10.282Z,100.00
2022-11-10T22:08:38.058Z,100.00
2022-11-10T22:11:24.120Z,100.00
2022-11-10T22:14:09.682Z,100.00
2022-11-10T22:17:04.337Z,100.00
2022-11-10T22:19:32.106Z,100.00
2022-11-10T22:22:03.465Z,100.00
2022-11-10T22:24:33.779Z,100.00
2022-11-10T22:27:03.085Z,100.00
2022-11-10T22:29:32.481Z,100.00
2022-11-10T22:32:00.615Z,100.00
2022-11-10T22:34:27.414Z,100.00
2022-11-10T22:36:59.480Z,100.00
2022-11-10T22:39:49.313Z,100.00
2022-11-10T22:42:34.939Z,100.00
2022-11-10T22:45:03.673Z,100.00
2022-11-10T22:47:50.200Z,100.00
2022-11-10T22:50:16.753Z,100.00
2022-11-10T22:52:43.609Z,100.00
2022-11-10T22:55:10.858Z,100.00
2022-11-10T22:57:37.817Z,100.00
2022-11-10T23:00:05.315Z,100.00
2022-11-10T23:02:31.835Z,100.00
2022-11-10T23:04:58.425Z,100.00
2022-11-10T23:07:25.692Z,100.00
2022-11-10T23:09:53.064Z,100.00
2022-11-10T23:12:22.277Z,100.00
2022-11-10T23:14:51.595Z,100.00
2022-11-10T23:17:19.117Z,100.00
2022-11-10T23:19:45.610Z,100.00
2022-11-10T23:22:14.871Z,100.00
2022-11-10T23:24:41.812Z,100.00
2022-11-10T23:27:08.427Z,100.00
2022-11-10T23:29:35.017Z,100.00
2022-11-10T23:32:01.950Z,100.00
2022-11-10T23:34:28.458Z,100.00
2022-11-10T23:36:55.039Z,100.00
2022-11-10T23:39:24.347Z,100.00
2022-11-10T23:41:51.135Z,100.00
2022-11-10T23:44:18.483Z,100.00
2022-11-10T23:46:47.785Z,100.00
2022-11-10T23:49:14.346Z,100.00
2022-11-10T23:51:45.661Z,100.00
2022-11-10T23:54:12.496Z,100.00
2022-11-10T23:56:39.003Z,100.00
2022-11-10T23:59:06.393Z,100.00
